Time;durP1;ratioP1;P1;durP2;ratioP2;P2;SDS_P1;SDS_P2;PMS_P1;PMS_P2;Temp;Humidity;BMP_temperature;BMP_pressure;BME280_temperature;BME280_humidity;BME280_pressure;Samples;Min_cycle;Max_cycle;Signal;HPM_P1;HPM_P2
2022/10/07 00:00:10;;;;;;;10.63;4.22;;;;;;;8.71;100.00;97009.72;1026562;28;20138;-71
2022/10/07 00:00:41;;;;;;;12.50;5.28;;;;;;;8.70;100.00;97015.97;1030375;28;20033;-70
2022/10/07 00:01:12;;;;;;;9.23;4.30;;;;;;;8.68;100.00;97010.16;1030815;28;20261;-70
2022/10/07 00:01:43;;;;;;;9.38;4.22;;;;;;;8.70;100.00;97015.19;1026829;28;20262;-69
2022/10/07 00:02:13;;;;;;;10.57;4.40;;;;;;;8.68;100.00;97015.38;1030166;28;20572;-69
2022/10/07 00:02:44;;;;;;;7.47;3.85;;;;;;;8.65;100.00;97010.63;1026545;28;20499;-70
2022/10/07 00:03:14;;;;;;;14.27;4.72;;;;;;;8.65;100.00;97013.25;1026704;28;20498;-70
2022/10/07 00:03:45;;;;;;;11.27;4.45;;;;;;;8.62;100.00;97011.06;1022670;28;20089;-70
2022/10/07 00:04:15;;;;;;;11.98;5.53;;;;;;;8.63;100.00;97004.78;1026377;28;20074;-70
2022/10/07 00:04:46;;;;;;;12.60;4.28;;;;;;;8.64;100.00;97011.63;1022637;28;20043;-70
2022/10/07 00:05:17;;;;;;;8.32;4.60;;;;;;;8.61;100.00;97012.06;1026650;28;20538;-68
2022/10/07 00:05:57;;;;;;;14.18;5.00;;;;;;;8.61;100.00;97006.81;1029889;28;20038;-70
2022/10/07 00:06:28;;;;;;;;;;;;;;;8.59;100.00;97006.25;1029913;28;20026;-71
2022/10/07 00:06:58;;;;;;;7.18;3.95;;;;;;;8.60;100.00;97009.66;1030536;28;20321;-70
2022/10/07 00:07:28;;;;;;;5.13;3.75;;;;;;;8.58;100.00;97009.06;1030270;28;20030;-70
2022/10/07 00:07:59;;;;;;;4.97;3.67;;;;;;;8.56;100.00;97011.91;1034701;28;20038;-70
2022/10/07 00:08:29;;;;;;;19.38;4.80;;;;;;;8.54;100.00;97011.31;1034359;28;20026;-70
2022/10/07 00:09:02;;;;;;;16.02;3.92;;;;;;;8.53;100.00;97009.75;1030426;28;20022;-70
2022/10/07 00:09:33;;;;;;;8.07;4.13;;;;;;;8.52;100.00;97013.38;1026738;28;20029;-70
2022/10/07 00:10:04;;;;;;;5.35;3.83;;;;;;;8.51;100.00;97017.00;1026124;28;20269;-69
2022/10/07 00:10:41;;;;;;;7.57;3.97;;;;;;;8.52;100.00;97013.38;1023009;28;20030;-70
2022/10/07 00:11:14;;;;;;;8.10;4.15;;;;;;;8.50;100.00;97007.56;1023501;28;20071;-69
2022/10/07 00:11:44;;;;;;;7.82;4.80;;;;;;;8.52;100.00;97007.31;1026543;28;20270;-70
2022/10/07 00:12:15;;;;;;;7.03;4.38;;;;;;;8.49;100.00;97008.56;1025395;28;20273;-70
2022/10/07 00:12:45;;;;;;;13.65;4.40;;;;;;;8.48;100.00;97007.78;1022970;28;20480;-70
2022/10/07 00:13:16;;;;;;;9.82;4.43;;;;;;;8.45;100.00;97004.78;1031017;28;20494;-71
2022/10/07 00:13:47;;;;;;;10.20;4.28;;;;;;;8.46;100.00;97006.41;1030878;28;20425;-69
2022/10/07 00:14:18;;;;;;;10.23;4.15;;;;;;;8.44;100.00;97006.59;1026572;28;20451;-71
2022/10/07 00:14:48;;;;;;;7.95;4.10;;;;;;;8.45;100.00;97012.63;1026336;28;20265;-71
2022/10/07 00:15:19;;;;;;;11.02;6.22;;;;;;;8.45;100.00;97010.84;1022563;28;20484;-69
2022/10/07 00:15:50;;;;;;;8.25;4.90;;;;;;;8.43;100.00;97009.44;1026624;28;20027;-69
2022/10/07 00:16:25;;;;;;;9.02;4.07;;;;;;;8.43;100.00;97010.25;1030929;28;20657;-70
2022/10/07 00:16:55;;;;;;;12.27;4.32;;;;;;;8.42;100.00;97008.66;1030492;28;20019;-69
2022/10/07 00:17:25;;;;;;;15.20;4.40;;;;;;;8.41;100.00;97006.22;1030560;28;20273;-70
2022/10/07 00:17:56;;;;;;;12.02;5.20;;;;;;;8.43;100.00;97006.81;1026630;28;20039;-71
2022/10/07 00:18:26;;;;;;;12.02;4.78;;;;;;;8.43;100.00;97009.44;1023146;28;20027;-69
2022/10/07 00:18:58;;;;;;;15.40;4.90;;;;;;;8.41;100.00;97006.22;1026340;28;20735;-69
2022/10/07 00:19:30;;;;;;;9.57;4.78;;;;;;;8.41;100.00;97004.41;1022803;28;20095;-69
2022/10/07 00:20:01;;;;;;;9.38;4.63;;;;;;;8.40;100.00;97002.81;1026893;28;20310;-69
2022/10/07 00:20:38;;;;;;;12.85;5.80;;;;;;;8.40;100.00;97010.66;1026700;28;20286;-70
2022/10/07 00:21:11;;;;;;;6.47;4.15;;;;;;;8.37;100.00;96997.19;1023820;28;20028;-70
2022/10/07 00:21:41;;;;;;;6.90;4.25;;;;;;;8.39;100.00;97008.28;1026679;28;20258;-71
2022/10/07 00:22:12;;;;;;;7.28;4.30;;;;;;;8.39;100.00;97005.66;1026644;28;20265;-70
2022/10/07 00:22:42;;;;;;;10.45;5.07;;;;;;;8.40;100.00;96999.41;1030474;28;20017;-71
2022/10/07 00:23:13;;;;;;;8.00;5.32;;;;;;;8.39;100.00;97003.84;1030636;28;20019;-70
2022/10/07 00:23:44;;;;;;;5.70;4.30;;;;;;;8.39;100.00;97005.66;1030723;28;20022;-69
2022/10/07 00:24:14;;;;;;;7.15;4.55;;;;;;;8.40;100.00;97000.22;1034943;28;20049;-70
2022/10/07 00:24:45;;;;;;;7.63;4.55;;;;;;;8.40;100.00;96999.41;1034502;28;20249;-69
2022/10/07 00:25:16;;;;;;;8.98;4.60;;;;;;;8.39;100.00;97000.44;1034507;28;20022;-69
2022/10/07 00:25:47;;;;;;;9.80;5.00;;;;;;;8.38;100.00;96998.81;1034137;28;20022;-71
2022/10/07 00:26:22;;;;;;;13.68;4.88;;;;;;;8.35;100.00;96994.00;1030465;28;20058;-68
2022/10/07 00:26:52;;;;;;;8.60;4.70;;;;;;;8.38;100.00;97001.44;1018606;29;20656;-71
2022/10/07 00:27:22;;;;;;;8.10;4.57;;;;;;;8.39;100.00;97003.06;1018601;29;20266;-70
2022/10/07 00:27:53;;;;;;;12.23;5.22;;;;;;;8.36;100.00;97000.84;1019260;29;20508;-70
2022/10/07 00:28:24;;;;;;;7.80;4.35;;;;;;;8.36;100.00;96998.22;1023023;28;20082;-69
2022/10/07 00:28:55;;;;;;;11.40;5.45;;;;;;;8.34;100.00;97000.25;1030493;28;20022;-72
2022/10/07 00:29:25;;;;;;;17.10;5.57;;;;;;;8.34;100.00;96995.00;1026326;28;20015;-70
2022/10/07 00:29:55;;;;;;;8.38;4.60;;;;;;;8.34;100.00;96995.00;1021172;29;20184;-70
2022/10/07 00:30:26;;;;;;;9.70;4.40;;;;;;;8.33;100.00;97001.28;1022486;29;20046;-69
2022/10/07 00:31:01;;;;;;;13.88;5.05;;;;;;;8.33;100.00;96999.44;1022641;29;20020;-69
2022/10/07 00:31:33;;;;;;;16.90;5.25;;;;;;;8.33;100.00;96994.22;1023124;28;20122;-70
2022/10/07 00:32:03;;;;;;;8.02;4.50;;;;;;;8.32;100.00;97000.47;1022551;29;20403;-70
2022/10/07 00:32:34;;;;;;;12.52;4.13;;;;;;;8.29;100.00;96993.06;1022823;29;20650;-70
2022/10/07 00:33:04;;;;;;;5.88;4.15;;;;;;;8.31;100.00;96992.81;1019299;28;20016;-70
2022/10/07 00:33:36;;;;;;;7.75;4.18;;;;;;;8.31;100.00;96995.44;1026511;28;20019;-70
2022/10/07 00:34:07;;;;;;;8.50;4.70;;;;;;;8.31;100.00;96993.63;1026776;28;20058;-71
2022/10/07 00:34:37;;;;;;;9.10;5.10;;;;;;;8.27;100.00;96985.41;1026475;28;20313;-69
2022/10/07 00:35:08;;;;;;;6.35;4.28;;;;;;;8.33;100.00;96990.81;1026583;28;20030;-71
2022/10/07 00:35:38;;;;;;;10.07;5.07;;;;;;;8.33;100.00;96988.19;1022011;28;20286;-70
2022/10/07 00:36:14;;;;;;;6.45;4.32;;;;;;;8.31;100.00;96991.00;1030487;28;20014;-71
2022/10/07 00:36:44;;;;;;;9.05;5.32;;;;;;;8.33;100.00;96985.56;1030610;28;20844;-70
2022/10/07 00:37:15;;;;;;;12.52;5.20;;;;;;;8.37;100.00;96994.59;1023743;28;20270;-71
2022/10/07 00:37:45;;;;;;;7.88;4.93;;;;;;;8.35;100.00;96978.28;1026886;28;20033;-70
2022/10/07 00:38:16;;;;;;;16.50;5.15;;;;;;;8.38;100.00;96985.75;1027391;28;20292;-70
2022/10/07 00:38:54;;;;;;;7.63;4.93;;;;;;;8.36;100.00;96987.75;1023010;28;20027;-70
2022/10/07 00:39:25;;;;;;;11.77;4.57;;;;;;;8.37;100.00;96986.75;1019151;29;20523;-71
2022/10/07 00:39:55;;;;;;;8.88;4.28;;;;;;;8.32;100.00;96970.91;1019133;29;20333;-70
2022/10/07 00:40:26;;;;;;;15.00;5.88;;;;;;;8.40;100.00;96983.72;1024326;28;20542;-70
2022/10/07 00:40:56;;;;;;;8.90;5.50;;;;;;;8.37;100.00;96979.69;1027102;28;20081;-69
2022/10/07 00:41:29;;;;;;;9.02;5.03;;;;;;;8.40;100.00;96978.50;1031253;28;20010;-71
2022/10/07 00:42:00;;;;;;;9.13;5.53;;;;;;;8.41;100.00;96974.84;1025570;28;20434;-70
2022/10/07 00:42:32;;;;;;;9.23;5.03;;;;;;;8.43;100.00;96980.66;1026361;28;20262;-70
2022/10/07 00:43:18;;;;;;;5.75;4.35;;;;;;;8.44;100.00;96979.66;1026686;28;20027;-70
2022/10/07 00:43:48;;;;;;;5.80;4.18;;;;;;;8.48;100.00;96980.81;1027104;28;20318;-71
2022/10/07 00:44:31;;;;;;;16.85;5.28;;;;;;;8.49;100.00;96974.56;1029260;28;20266;-71
2022/10/07 00:45:01;;;;;;;8.93;4.82;;;;;;;8.50;100.00;96973.56;1031181;28;20027;-70
2022/10/07 00:45:32;;;;;;;8.15;4.65;;;;;;;8.52;100.00;96982.00;1030699;28;20261;-69
2022/10/07 00:46:23;;;;;;;13.70;4.95;;;;;;;8.53;100.00;96978.34;1026740;28;20022;-70
2022/10/07 00:46:54;;;;;;;14.23;5.50;;;;;;;8.55;100.00;96978.13;1023101;29;20023;-70
2022/10/07 00:47:27;;;;;;;7.00;4.65;;;;;;;8.59;100.00;96979.28;1024038;28;20351;-70
2022/10/07 00:47:58;;;;;;;8.20;4.45;;;;;;;8.58;100.00;96975.84;1030895;28;20019;-70
2022/10/07 00:48:29;;;;;;;7.95;4.82;;;;;;;8.60;100.00;96976.44;1020013;29;20801;-70
2022/10/07 00:49:07;;;;;;;7.15;4.63;;;;;;;8.63;100.00;96970.78;1027156;28;20105;-70
2022/10/07 00:49:47;;;;;;;10.02;5.40;;;;;;;8.63;100.00;96967.38;1027136;28;20328;-69
2022/10/07 00:50:20;;;;;;;10.13;4.85;;;;;;;8.67;100.00;96968.53;1023076;29;20258;-70
2022/10/07 00:50:51;;;;;;;9.15;5.13;;;;;;;8.67;100.00;96968.53;1025328;28;20034;-70
2022/10/07 00:51:22;;;;;;;7.80;4.55;;;;;;;8.69;100.00;96961.25;1029226;28;20262;-70
2022/10/07 00:51:52;;;;;;;10.85;5.05;;;;;;;8.69;100.00;96961.25;1035352;28;20253;-71
2022/10/07 00:52:24;;;;;;;8.75;4.88;;;;;;;8.74;100.00;96964.81;1035039;28;20084;-70
2022/10/07 00:52:56;;;;;;;10.23;5.43;;;;;;;8.78;100.00;96964.38;1027417;28;20019;-71
2022/10/07 00:53:28;;;;;;;10.23;5.38;;;;;;;8.77;100.00;96966.19;1031110;28;20276;-71
2022/10/07 00:53:59;;;;;;;11.73;5.53;;;;;;;8.83;100.00;96967.13;1035249;28;20336;-70
2022/10/07 00:54:29;;;;;;;8.57;5.85;;;;;;;8.84;100.00;96958.25;1031212;28;20261;-70
2022/10/07 00:55:02;;;;;;;10.65;5.25;;;;;;;8.88;100.00;96964.63;1031163;28;20531;-70
2022/10/07 00:55:34;;;;;;;9.82;5.45;;;;;;;8.92;100.00;96960.56;1026588;28;20077;-70
2022/10/07 00:56:04;;;;;;;11.27;5.55;;;;;;;8.93;100.00;96962.97;1019245;29;20767;-71
2022/10/07 00:56:35;;;;;;;12.82;5.68;;;;;;;8.94;100.00;96953.28;1019139;29;20263;-70
2022/10/07 00:57:05;;;;;;;8.93;5.75;;;;;;;9.00;100.00;96960.25;1019722;29;20047;-71
2022/10/07 00:57:37;;;;;;;9.73;4.90;;;;;;;9.03;100.00;96956.41;1023286;28;20478;-69
2022/10/07 00:58:08;;;;;;;15.90;6.25;;;;;;;9.04;100.00;96961.41;1025435;28;20038;-69
2022/10/07 00:58:39;;;;;;;8.20;4.97;;;;;;;9.06;100.00;96956.75;1029702;28;20355;-71
2022/10/07 00:59:10;;;;;;;15.07;5.95;;;;;;;9.09;100.00;96960.75;1027616;28;20796;-70
2022/10/07 00:59:40;;;;;;;13.95;5.18;;;;;;;9.11;100.00;96954.25;1031131;28;20022;-70
2022/10/07 01:00:11;;;;;;;25.95;6.55;;;;;;;9.14;100.00;96959.06;1027196;28;20341;-71
2022/10/07 01:00:42;;;;;;;22.10;6.05;;;;;;;9.15;100.00;96955.44;1022919;29;20566;-70
2022/10/07 01:01:12;;;;;;;17.50;5.90;;;;;;;9.16;100.00;96959.63;1023186;29;20023;-70
2022/10/07 01:01:43;;;;;;;10.48;5.30;;;;;;;9.20;100.00;96958.16;1023291;28;20086;-69
2022/10/07 01:02:14;;;;;;;7.28;4.82;;;;;;;9.20;100.00;96958.16;1027216;28;20011;-69
2022/10/07 01:02:45;;;;;;;11.60;5.15;;;;;;;9.25;100.00;96960.09;1023515;28;20026;-69
2022/10/07 01:03:15;;;;;;;15.43;5.63;;;;;;;9.26;100.00;96951.25;1023060;29;20028;-69
2022/10/07 01:03:46;;;;;;;16.00;5.30;;;;;;;9.26;100.00;96945.22;1023257;29;20047;-70
2022/10/07 01:04:19;;;;;;;11.98;5.13;;;;;;;9.28;100.00;96951.00;1023807;28;20024;-69
2022/10/07 01:04:49;;;;;;;8.35;4.63;;;;;;;9.30;100.00;96946.34;1027569;28;20261;-70
2022/10/07 01:05:20;;;;;;;10.35;5.38;;;;;;;9.31;100.00;96953.19;1030970;28;20272;-67
2022/10/07 01:05:50;;;;;;;6.70;5.07;;;;;;;9.33;100.00;96949.31;1030971;28;20022;-70
2022/10/07 01:06:22;;;;;;;7.72;4.75;;;;;;;9.35;100.00;96949.88;1031441;28;20325;-69
2022/10/07 01:06:52;;;;;;;19.63;5.95;;;;;;;9.35;100.00;96949.88;1027154;28;20019;-69
2022/10/07 01:07:22;;;;;;;8.35;5.50;;;;;;;9.37;100.00;96945.22;1027195;28;20262;-70
2022/10/07 01:07:53;;;;;;;7.53;5.22;;;;;;;9.41;100.00;96948.19;1023172;29;20015;-69
2022/10/07 01:08:24;;;;;;;14.57;5.63;;;;;;;9.43;100.00;96951.41;1031379;28;20015;-71
2022/10/07 01:08:56;;;;;;;10.05;5.43;;;;;;;9.42;100.00;96944.53;1026922;28;20015;-69
2022/10/07 01:09:26;;;;;;;8.43;5.43;;;;;;;9.43;100.00;96952.19;1019574;29;20023;-71
2022/10/07 01:09:58;;;;;;;8.30;5.05;;;;;;;9.47;100.00;96944.69;1023011;28;20334;-69
2022/10/07 01:11:12;;;;;;;9.98;5.03;;;;;;;9.51;100.00;96943.19;1023230;29;20019;-70
2022/10/07 01:12:02;;;;;;;9.07;5.00;;;;;;;9.56;100.00;96951.19;1006929;29;20258;-70
2022/10/07 01:13:03;;;;;;;10.82;4.78;;;;;;;9.57;100.00;96949.38;1017379;29;20266;-71
2022/10/07 01:13:41;;;;;;;10.18;4.80;;;;;;;9.57;100.00;96941.50;1025895;28;20255;-71
2022/10/07 01:14:32;;;;;;;7.72;4.60;;;;;;;9.54;100.00;96942.75;1029299;28;20772;-70
2022/10/07 01:15:29;;;;;;;8.48;5.30;;;;;;;9.64;100.00;96948.22;1035159;28;20268;-69
2022/10/07 01:16:09;;;;;;;9.10;4.90;;;;;;;9.63;100.00;96946.63;1024554;28;20270;-70
2022/10/07 01:16:46;;;;;;;9.15;4.97;;;;;;;9.64;100.00;96945.59;1026967;28;20281;-69
2022/10/07 01:17:31;;;;;;;10.43;4.68;;;;;;;9.67;100.00;96942.53;1026969;28;20027;-69
2022/10/07 01:18:37;;;;;;;9.88;5.47;;;;;;;9.71;100.00;96942.88;1039064;28;20816;-70
2022/10/07 01:19:30;;;;;;;8.23;6.05;;;;;;;9.73;100.00;96940.84;1013863;29;21621;-70
2022/10/07 01:20:19;;;;;;;7.57;4.70;;;;;;;9.70;100.00;96943.91;1014855;29;20951;-70
2022/10/07 01:21:09;;;;;;;7.20;4.63;;;;;;;9.74;100.00;96937.19;1011104;29;20237;-70
2022/10/07 01:22:10;;;;;;;16.08;5.35;;;;;;;9.77;100.00;96936.72;1010833;28;20325;-69
2022/10/07 01:22:55;;;;;;;11.05;4.43;;;;;;;9.79;100.00;96941.75;1019104;29;20688;-70
2022/10/07 01:23:46;;;;;;;13.35;4.80;;;;;;;9.80;100.00;96945.97;1022651;28;20055;-70
2022/10/07 01:24:20;;;;;;;7.43;4.30;;;;;;;9.80;100.00;96935.50;1027850;28;20299;-68
2022/10/07 01:25:05;;;;;;;7.45;4.80;;;;;;;9.79;100.00;96934.69;1031193;28;20765;-71
2022/10/07 01:25:50;;;;;;;9.10;4.82;;;;;;;9.83;100.00;96937.66;1034350;28;20339;-70
2022/10/07 01:26:26;;;;;;;11.73;4.85;;;;;;;9.83;100.00;96935.84;1031062;28;20274;-71
2022/10/07 01:27:07;;;;;;;10.02;4.82;;;;;;;9.83;100.00;96935.84;1027029;28;20273;-69
2022/10/07 01:27:38;;;;;;;8.75;5.32;;;;;;;9.78;100.00;96927.03;1030802;28;20296;-70
2022/10/07 01:28:14;;;;;;;7.65;5.00;;;;;;;9.81;100.00;96931.84;1029399;28;20285;-69
2022/10/07 01:29:01;;;;;;;11.60;4.68;;;;;;;9.85;100.00;96927.72;1031069;28;20261;-70
2022/10/07 01:29:39;;;;;;;12.55;5.18;;;;;;;9.88;100.00;96927.28;1027093;28;20328;-69
2022/10/07 01:30:11;;;;;;;10.27;5.18;;;;;;;9.86;100.00;96926.72;1027258;28;20466;-71
2022/10/07 01:30:46;;;;;;;10.73;4.93;;;;;;;9.84;100.00;96923.53;1019728;29;20259;-70
2022/10/07 01:31:18;;;;;;;9.52;5.05;;;;;;;9.82;100.00;96928.19;1019252;29;20267;-67
2022/10/07 01:31:52;;;;;;;6.88;4.95;;;;;;;9.85;100.00;96927.72;1026857;28;20321;-71
2022/10/07 01:32:25;;;;;;;7.10;4.75;;;;;;;9.88;100.00;96927.28;1023075;29;20358;-69
2022/10/07 01:32:58;;;;;;;7.72;5.07;;;;;;;9.87;100.00;96930.94;1023421;29;20810;-70
2022/10/07 01:33:30;;;;;;;7.68;4.90;;;;;;;9.87;100.00;96929.09;1019191;29;20815;-71
2022/10/07 01:34:00;;;;;;;8.02;5.07;;;;;;;9.88;100.00;96919.41;1027224;28;20766;-71
2022/10/07 01:34:31;;;;;;;9.05;5.70;;;;;;;9.88;100.00;96927.28;1023216;29;20342;-70
2022/10/07 01:35:04;;;;;;;8.80;5.40;;;;;;;9.92;100.00;96923.16;1019345;29;20047;-70
2022/10/07 01:35:35;;;;;;;8.02;4.93;;;;;;;9.89;100.00;96924.44;1026707;28;20258;-71
2022/10/07 01:36:10;;;;;;;8.23;5.18;;;;;;;9.94;100.00;96926.38;1027092;28;20765;-70
2022/10/07 01:36:41;;;;;;;10.95;5.45;;;;;;;9.97;100.00;96927.75;1025722;28;20022;-69
2022/10/07 01:37:13;;;;;;;7.82;4.82;;;;;;;9.96;100.00;96929.56;1023188;29;20281;-69
2022/10/07 01:37:47;;;;;;;9.93;5.38;;;;;;;9.97;100.00;96925.91;1027103;28;20451;-70
2022/10/07 01:38:18;;;;;;;8.50;5.15;;;;;;;9.94;100.00;96926.38;1027146;28;20309;-69
2022/10/07 01:39:00;;;;;;;7.82;4.90;;;;;;;9.98;100.00;96922.25;1023113;29;20879;-70
2022/10/07 01:39:37;;;;;;;8.95;5.10;;;;;;;9.99;100.00;96923.03;1023272;28;20366;-71
2022/10/07 01:40:16;;;;;;;6.80;4.78;;;;;;;9.99;100.00;96921.22;1022990;29;20287;-70
2022/10/07 01:40:53;;;;;;;10.23;5.43;;;;;;;9.97;100.00;96915.41;1027293;28;20875;-71
2022/10/07 01:41:24;;;;;;;10.25;4.90;;;;;;;9.97;100.00;96920.66;1023244;29;20298;-69
2022/10/07 01:41:54;;;;;;;9.43;5.35;;;;;;;9.97;100.00;96920.66;1027060;28;20265;-70
2022/10/07 01:42:26;;;;;;;7.55;5.00;;;;;;;9.99;100.00;96917.81;1023311;29;20019;-71
2022/10/07 01:42:57;;;;;;;7.88;4.90;;;;;;;9.98;100.00;96917.00;1023073;29;20083;-71
2022/10/07 01:43:27;;;;;;;9.02;5.13;;;;;;;9.96;100.00;96918.25;1027216;28;20325;-71
2022/10/07 01:43:58;;;;;;;9.68;4.68;;;;;;;9.98;100.00;96919.63;1031038;28;20014;-71
2022/10/07 01:44:28;;;;;;;9.63;4.93;;;;;;;9.96;100.00;96913.84;1019100;29;20023;-70
2022/10/07 01:44:59;;;;;;;8.73;5.38;;;;;;;9.95;100.00;96912.22;1023047;29;20497;-70
2022/10/07 01:45:29;;;;;;;11.65;5.55;;;;;;;9.94;100.00;96913.25;1026448;28;20026;-70
2022/10/07 01:46:00;;;;;;;7.53;4.97;;;;;;;10.01;100.00;96910.50;1015030;29;20021;-70
2022/10/07 01:46:33;;;;;;;9.38;5.20;;;;;;;10.00;100.00;96904.47;1023011;29;20030;-70
2022/10/07 01:47:03;;;;;;;7.20;4.60;;;;;;;10.02;100.00;96920.75;1026664;28;20023;-71
2022/10/07 01:47:33;;;;;;;8.13;4.57;;;;;;;10.01;100.00;96910.50;1023987;28;20334;-71
2022/10/07 01:48:04;;;;;;;8.55;5.22;;;;;;;10.02;100.00;96918.13;1031207;28;20010;-70
2022/10/07 01:48:35;;;;;;;7.47;4.88;;;;;;;10.05;100.00;96915.06;1035015;28;20052;-70
2022/10/07 01:49:05;;;;;;;9.40;5.15;;;;;;;10.01;100.00;96897.41;1035539;28;20068;-71
2022/10/07 01:49:36;;;;;;;11.77;5.38;;;;;;;10.05;100.00;96912.44;1027011;28;20029;-69
2022/10/07 01:50:11;;;;;;;15.98;5.32;;;;;;;10.12;100.00;96912.31;1027140;28;20669;-70
2022/10/07 01:50:41;;;;;;;7.40;4.78;;;;;;;10.10;100.00;96904.69;1027194;28;20350;-70
2022/10/07 01:51:13;;;;;;;7.53;5.45;;;;;;;10.09;100.00;96910.97;1023645;28;20302;-70
2022/10/07 01:51:43;;;;;;;10.30;5.38;;;;;;;10.10;100.00;96911.78;1015325;29;20079;-70
2022/10/07 01:52:29;;;;;;;8.85;5.32;;;;;;;10.11;100.00;96906.28;1019123;29;20739;-70
2022/10/07 01:53:31;;;;;;;8.43;4.63;;;;;;;10.11;100.00;96910.72;1023398;28;20023;-71
2022/10/07 01:54:20;;;;;;;7.65;4.50;;;;;;;10.13;100.00;96909.47;1035033;28;20249;-70
2022/10/07 01:55:14;;;;;;;7.35;4.63;;;;;;;10.15;100.00;96910.03;1035015;28;20237;-70
2022/10/07 01:56:06;;;;;;;10.95;4.70;;;;;;;10.12;100.00;96907.06;1034677;28;20236;-71
2022/10/07 01:56:50;;;;;;;8.55;5.03;;;;;;;10.07;100.00;96902.53;1034929;28;20261;-70
2022/10/07 01:57:40;;;;;;;9.57;5.35;;;;;;;10.08;100.00;96909.34;1031177;28;20273;-70
2022/10/07 01:58:31;;;;;;;9.73;4.70;;;;;;;10.08;100.00;96905.94;1026913;28;20266;-70
2022/10/07 01:59:14;;;;;;;10.30;4.75;;;;;;;10.08;100.00;96906.75;1025216;28;20695;-70
2022/10/07 01:59:53;;;;;;;6.25;4.63;;;;;;;10.06;100.00;96903.56;1027338;28;20261;-71
2022/10/07 02:00:24;;;;;;;7.93;4.07;;;;;;;10.09;100.00;96907.53;1027094;28;20274;-70
2022/10/07 02:01:47;;;;;;;7.85;4.85;;;;;;;10.10;100.00;96904.69;1025649;28;20023;-70
2022/10/07 02:02:53;;;;;;;11.13;4.80;;;;;;;10.11;100.00;96906.28;1006398;29;20507;-70
2022/10/07 02:03:45;;;;;;;5.78;4.25;;;;;;;10.15;100.00;96910.03;1022889;28;20267;-70
2022/10/07 02:04:18;;;;;;;8.30;4.53;;;;;;;10.13;100.00;96900.81;1034332;28;20304;-70
2022/10/07 02:05:01;;;;;;;8.00;4.90;;;;;;;10.17;100.00;96899.31;1031046;28;20258;-70
2022/10/07 02:05:54;;;;;;;10.48;4.82;;;;;;;10.16;100.00;96902.97;1030583;28;20257;-70
2022/10/07 02:06:46;;;;;;;12.05;5.10;;;;;;;10.18;100.00;96905.38;1026105;28;20271;-70
2022/10/07 02:07:22;;;;;;;5.85;4.22;;;;;;;10.17;100.00;96903.78;1030924;28;20352;-71
2022/10/07 02:08:01;;;;;;;6.65;4.70;;;;;;;10.18;100.00;96902.75;1031039;28;20253;-69
2022/10/07 02:08:38;;;;;;;11.30;6.13;;;;;;;10.17;100.00;96904.56;1022935;29;20271;-71
2022/10/07 02:09:20;;;;;;;8.25;4.75;;;;;;;10.15;100.00;96907.41;1021841;29;20255;-70
2022/10/07 02:10:18;;;;;;;7.10;4.88;;;;;;;10.17;100.00;96906.41;1023047;29;20754;-70
2022/10/07 02:11:00;;;;;;;5.88;4.20;;;;;;;10.21;100.00;96904.91;1032117;28;20891;-71
2022/10/07 02:11:32;;;;;;;9.38;4.30;;;;;;;10.17;100.00;96904.56;1024579;28;20261;-71
2022/10/07 02:12:15;;;;;;;6.32;4.82;;;;;;;10.18;100.00;96903.53;1027055;28;20304;-70
2022/10/07 02:12:50;;;;;;;9.57;5.13;;;;;;;10.18;100.00;96902.75;1027129;28;20908;-71
2022/10/07 02:13:32;;;;;;;10.35;5.18;;;;;;;10.19;100.00;96909.56;1029408;28;20357;-70
2022/10/07 02:14:09;;;;;;;13.25;5.35;;;;;;;10.21;100.00;96897.03;1026965;28;20262;-70
2022/10/07 02:15:04;;;;;;;8.02;5.28;;;;;;;10.20;100.00;96903.31;1034149;28;20451;-71
2022/10/07 02:15:47;;;;;;;7.40;4.55;;;;;;;10.24;100.00;96901.81;1030113;28;20668;-69
2022/10/07 02:16:18;;;;;;;7.22;4.85;;;;;;;10.21;100.00;96895.22;1026257;28;20271;-71
2022/10/07 02:16:55;;;;;;;7.75;4.93;;;;;;;10.20;100.00;96900.69;1023066;29;20265;-70
2022/10/07 02:17:25;;;;;;;8.90;5.18;;;;;;;10.17;100.00;96893.28;1025605;28;20262;-70
2022/10/07 02:18:01;;;;;;;7.50;5.50;;;;;;;10.09;100.00;96882.13;1028010;28;20257;-71
2022/10/07 02:18:32;;;;;;;8.38;4.97;;;;;;;10.19;100.00;96897.25;1028727;28;20375;-70
2022/10/07 02:19:10;;;;;;;7.65;4.95;;;;;;;10.19;100.00;96896.47;1026916;28;20345;-71
2022/10/07 02:19:42;;;;;;;12.93;5.45;;;;;;;10.25;100.00;96896.34;1026882;28;20210;-70
2022/10/07 02:20:13;;;;;;;13.02;4.40;;;;;;;10.29;100.00;96894.06;1028828;28;20626;-71
2022/10/07 02:20:46;;;;;;;10.82;5.65;;;;;;;10.29;100.00;96891.44;1026991;28;20246;-70
2022/10/07 02:21:18;;;;;;;7.93;4.80;;;;;;;10.24;100.00;96900.00;1022960;29;20732;-71
2022/10/07 02:21:51;;;;;;;7.38;4.60;;;;;;;10.20;100.00;96883.13;1026963;28;20254;-69
2022/10/07 02:22:22;;;;;;;11.70;5.13;;;;;;;10.27;100.00;96883.81;1030988;28;20916;-70
2022/10/07 02:22:54;;;;;;;9.88;4.80;;;;;;;10.25;100.00;96895.53;1026958;28;20305;-70
2022/10/07 02:23:24;;;;;;;8.80;4.82;;;;;;;10.26;100.00;96894.53;1026998;28;20274;-71
2022/10/07 02:23:55;;;;;;;6.75;4.63;;;;;;;10.29;100.00;96889.63;1030842;28;20257;-71
2022/10/07 02:24:27;;;;;;;10.27;4.60;;;;;;;10.29;100.00;96887.00;1030730;28;20021;-70
2022/10/07 02:24:58;;;;;;;14.40;6.50;;;;;;;10.26;100.00;96882.22;1022857;29;20023;-70
2022/10/07 02:25:32;;;;;;;12.43;5.50;;;;;;;10.31;100.00;96881.53;1026429;28;20695;-70
2022/10/07 02:26:02;;;;;;;7.60;5.55;;;;;;;10.28;100.00;96892.47;1030607;28;20556;-71
2022/10/07 02:26:33;;;;;;;9.57;4.80;;;;;;;10.25;100.00;96892.91;1022869;29;20270;-71
2022/10/07 02:27:09;;;;;;;14.32;5.80;;;;;;;10.27;100.00;96890.91;1018946;29;20011;-69
2022/10/07 02:27:40;;;;;;;9.98;4.45;;;;;;;10.26;100.00;96881.41;1022870;28;20015;-70
2022/10/07 02:28:10;;;;;;;8.50;4.70;;;;;;;10.31;100.00;96884.16;1022642;28;20251;-70
2022/10/07 02:28:41;;;;;;;8.43;4.97;;;;;;;10.31;100.00;96889.41;1022876;29;20112;-70
2022/10/07 02:29:12;;;;;;;9.73;4.55;;;;;;;10.21;100.00;96886.53;1026943;28;20679;-71
2022/10/07 02:29:43;;;;;;;7.55;4.90;;;;;;;10.20;100.00;96890.19;1022987;29;20431;-71
2022/10/07 02:30:15;;;;;;;8.15;4.57;;;;;;;10.20;100.00;96887.59;1023061;29;20077;-70
2022/10/07 02:30:47;;;;;;;8.27;4.60;;;;;;;10.20;100.00;96892.81;1026984;28;20030;-70
2022/10/07 02:31:19;;;;;;;8.27;5.10;;;;;;;10.22;100.00;96885.50;1027542;28;20376;-70
2022/10/07 02:31:50;;;;;;;7.55;4.68;;;;;;;10.20;100.00;96887.59;1030969;28;20246;-70
2022/10/07 02:32:21;;;;;;;11.60;5.35;;;;;;;10.15;100.00;96878.56;1026258;28;20274;-70
2022/10/07 02:32:54;;;;;;;9.13;5.43;;;;;;;10.18;100.00;96885.16;1024224;28;20015;-71
2022/10/07 02:33:26;;;;;;;7.47;5.22;;;;;;;10.17;100.00;96888.84;1025164;28;20270;-70
2022/10/07 02:33:56;;;;;;;9.43;5.38;;;;;;;10.20;100.00;96887.59;1026072;28;20296;-71
2022/10/07 02:34:27;;;;;;;8.75;4.88;;;;;;;10.13;100.00;96874.59;1026816;28;20268;-70
2022/10/07 02:35:02;;;;;;;7.75;5.05;;;;;;;10.17;100.00;96882.78;1026119;28;20053;-70
2022/10/07 02:35:46;;;;;;;6.97;4.78;;;;;;;10.20;100.00;96887.59;1027247;28;20014;-68
2022/10/07 02:36:23;;;;;;;8.32;5.07;;;;;;;10.22;100.00;96880.25;1026458;28;20325;-68
2022/10/07 02:36:57;;;;;;;8.32;4.43;;;;;;;10.25;100.00;96882.41;1027282;28;20261;-70
2022/10/07 02:37:30;;;;;;;7.50;4.90;;;;;;;10.26;100.00;96876.16;1027194;28;20695;-70
2022/10/07 02:38:04;;;;;;;7.00;4.85;;;;;;;10.24;100.00;96884.25;1030606;28;20258;-71
2022/10/07 02:38:34;;;;;;;6.47;4.47;;;;;;;10.27;100.00;96880.41;1033916;28;20260;-70
2022/10/07 02:39:05;;;;;;;6.38;5.03;;;;;;;10.27;100.00;96883.03;1033900;28;20265;-70
2022/10/07 02:39:35;;;;;;;7.28;4.38;;;;;;;10.20;100.00;96866.59;1031256;28;20026;-70
2022/10/07 02:40:06;;;;;;;6.72;4.50;;;;;;;10.28;100.00;96885.41;1031004;28;20119;-69
2022/10/07 02:40:42;;;;;;;11.43;5.18;;;;;;;10.31;100.00;96873.66;1027145;28;20078;-69
2022/10/07 02:41:50;;;;;;;7.32;5.47;;;;;;;10.33;100.00;96879.47;1023258;29;20019;-70
2022/10/07 02:42:24;;;;;;;6.90;4.35;;;;;;;10.31;100.00;96878.91;1027172;28;20297;-70
2022/10/07 02:42:57;;;;;;;8.43;4.53;;;;;;;10.29;100.00;96878.31;1022004;28;20275;-69
2022/10/07 02:43:44;;;;;;;9.43;5.15;;;;;;;10.33;100.00;96877.66;1023211;29;20298;-69
2022/10/07 02:44:33;;;;;;;7.28;4.13;;;;;;;10.32;100.00;96873.41;1023256;29;20281;-70